Terminal Aerodrome Forecast
Issued by NWS

Home | Current Version | Previous Version | Text Only | Print | Product List | Glossary Off
Versions: 1 2 3 4 5 6 7 8 9 10 11 12 13

000
FTUS43 KICT 192330
TAFHUT
TAF
KHUT 192330Z 2000/2024 19018G26KT P6SM SCT250
     FM200100 19013KT P6SM SCT250
     FM200300 19011KT P6SM SCT250 WS020/21040KT
     FM200600 19008KT P6SM FEW250
     FM201200 01008KT P6SM FEW250
     FM201500 03012KT P6SM FEW250=

USA.gov is the U.S. government's official web portal to all federal, state and local government web resources and services.